sensor_id;sensor_type;location;lat;lon;timestamp;P1;durP1;ratioP1;P2;durP2;ratioP2
28523;SDS011;15734;50.904;6.922;2023-08-12T00:01:33;57.85;;;29.95;;
28523;SDS011;15734;50.904;6.922;2023-08-12T00:03:58;54.28;;;30.95;;
28523;SDS011;15734;50.904;6.922;2023-08-12T00:06:24;62.08;;;32.20;;
28523;SDS011;15734;50.904;6.922;2023-08-12T00:08:49;57.30;;;34.92;;
28523;SDS011;15734;50.904;6.922;2023-08-12T00:11:15;66.60;;;38.72;;
28523;SDS011;15734;50.904;6.922;2023-08-12T00:13:40;64.80;;;36.67;;
28523;SDS011;15734;50.904;6.922;2023-08-12T00:16:06;52.97;;;31.42;;
28523;SDS011;15734;50.904;6.922;2023-08-12T00:18:32;67.47;;;32.10;;
28523;SDS011;15734;50.904;6.922;2023-08-12T00:21:06;73.07;;;35.38;;
28523;SDS011;15734;50.904;6.922;2023-08-12T00:23:36;52.63;;;28.25;;
28523;SDS011;15734;50.904;6.922;2023-08-12T00:26:04;68.88;;;36.58;;
28523;SDS011;15734;50.904;6.922;2023-08-12T00:28:31;52.45;;;32.00;;
28523;SDS011;15734;50.904;6.922;2023-08-12T00:30:56;66.65;;;37.50;;
28523;SDS011;15734;50.904;6.922;2023-08-12T00:33:22;55.83;;;30.63;;
28523;SDS011;15734;50.904;6.922;2023-08-12T00:35:47;75.68;;;38.72;;
28523;SDS011;15734;50.904;6.922;2023-08-12T00:38:13;52.47;;;31.55;;
28523;SDS011;15734;50.904;6.922;2023-08-12T00:40:38;51.20;;;28.08;;
28523;SDS011;15734;50.904;6.922;2023-08-12T00:43:04;64.82;;;34.97;;
28523;SDS011;15734;50.904;6.922;2023-08-12T00:45:29;70.78;;;38.30;;
28523;SDS011;15734;50.904;6.922;2023-08-12T00:47:55;78.78;;;39.85;;
28523;SDS011;15734;50.904;6.922;2023-08-12T00:50:21;64.47;;;35.55;;
28523;SDS011;15734;50.904;6.922;2023-08-12T00:52:47;54.05;;;31.55;;
28523;SDS011;15734;50.904;6.922;2023-08-12T00:55:14;62.03;;;31.17;;
28523;SDS011;15734;50.904;6.922;2023-08-12T00:57:40;59.17;;;33.17;;
28523;SDS011;15734;50.904;6.922;2023-08-12T01:00:06;66.63;;;36.00;;
28523;SDS011;15734;50.904;6.922;2023-08-12T01:02:33;72.10;;;37.13;;
28523;SDS011;15734;50.904;6.922;2023-08-12T01:04:58;56.45;;;32.60;;
28523;SDS011;15734;50.904;6.922;2023-08-12T01:07:24;70.65;;;36.60;;
28523;SDS011;15734;50.904;6.922;2023-08-12T01:09:49;68.28;;;35.15;;
28523;SDS011;15734;50.904;6.922;2023-08-12T01:12:23;67.50;;;36.88;;
28523;SDS011;15734;50.904;6.922;2023-08-12T01:14:56;74.05;;;38.97;;
28523;SDS011;15734;50.904;6.922;2023-08-12T01:17:33;71.93;;;39.63;;
28523;SDS011;15734;50.904;6.922;2023-08-12T01:20:02;71.80;;;40.95;;
28523;SDS011;15734;50.904;6.922;2023-08-12T01:22:37;77.85;;;40.00;;
28523;SDS011;15734;50.904;6.922;2023-08-12T01:25:07;77.25;;;41.22;;
28523;SDS011;15734;50.904;6.922;2023-08-12T01:27:34;78.38;;;39.95;;
28523;SDS011;15734;50.904;6.922;2023-08-12T01:30:01;70.25;;;37.10;;
28523;SDS011;15734;50.904;6.922;2023-08-12T01:32:34;51.58;;;29.30;;
28523;SDS011;15734;50.904;6.922;2023-08-12T01:37:44;64.00;;;34.30;;
28523;SDS011;15734;50.904;6.922;2023-08-12T01:40:10;70.88;;;37.50;;
28523;SDS011;15734;50.904;6.922;2023-08-12T01:42:39;74.25;;;38.15;;
28523;SDS011;15734;50.904;6.922;2023-08-12T01:45:05;78.13;;;38.38;;
28523;SDS011;15734;50.904;6.922;2023-08-12T01:47:31;72.45;;;36.67;;
28523;SDS011;15734;50.904;6.922;2023-08-12T01:49:59;61.28;;;33.40;;
28523;SDS011;15734;50.904;6.922;2023-08-12T01:52:25;64.55;;;36.22;;
28523;SDS011;15734;50.904;6.922;2023-08-12T01:54:51;74.88;;;39.10;;
28523;SDS011;15734;50.904;6.922;2023-08-12T01:57:16;99.88;;;48.97;;
28523;SDS011;15734;50.904;6.922;2023-08-12T01:59:42;62.25;;;34.47;;
28523;SDS011;15734;50.904;6.922;2023-08-12T02:02:09;72.13;;;37.38;;
28523;SDS011;15734;50.904;6.922;2023-08-12T02:04:34;80.00;;;39.38;;
28523;SDS011;15734;50.904;6.922;2023-08-12T02:07:02;64.45;;;34.42;;
28523;SDS011;15734;50.904;6.922;2023-08-12T02:09:27;79.53;;;39.35;;
28523;SDS011;15734;50.904;6.922;2023-08-12T02:11:53;86.07;;;39.58;;
28523;SDS011;15734;50.904;6.922;2023-08-12T02:14:18;81.93;;;39.45;;
28523;SDS011;15734;50.904;6.922;2023-08-12T02:16:44;80.78;;;39.95;;
28523;SDS011;15734;50.904;6.922;2023-08-12T02:19:09;86.80;;;40.05;;
28523;SDS011;15734;50.904;6.922;2023-08-12T02:21:35;82.50;;;40.55;;
28523;SDS011;15734;50.904;6.922;2023-08-12T02:24:00;71.30;;;36.38;;
28523;SDS011;15734;50.904;6.922;2023-08-12T02:26:26;85.53;;;40.13;;
28523;SDS011;15734;50.904;6.922;2023-08-12T02:28:51;89.60;;;43.17;;
28523;SDS011;15734;50.904;6.922;2023-08-12T02:31:17;91.80;;;42.97;;
28523;SDS011;15734;50.904;6.922;2023-08-12T02:33:43;82.25;;;42.65;;
28523;SDS011;15734;50.904;6.922;2023-08-12T02:36:08;70.78;;;37.78;;
28523;SDS011;15734;50.904;6.922;2023-08-12T02:38:34;93.03;;;43.78;;
28523;SDS011;15734;50.904;6.922;2023-08-12T02:41:00;91.30;;;43.28;;
28523;SDS011;15734;50.904;6.922;2023-08-12T02:43:25;78.57;;;41.65;;
28523;SDS011;15734;50.904;6.922;2023-08-12T02:45:51;79.75;;;42.47;;
28523;SDS011;15734;50.904;6.922;2023-08-12T02:48:16;80.68;;;41.47;;
28523;SDS011;15734;50.904;6.922;2023-08-12T02:50:42;93.03;;;45.65;;
28523;SDS011;15734;50.904;6.922;2023-08-12T02:53:08;96.47;;;43.17;;
28523;SDS011;15734;50.904;6.922;2023-08-12T02:55:33;91.60;;;42.25;;
28523;SDS011;15734;50.904;6.922;2023-08-12T02:58:00;82.53;;;40.53;;
28523;SDS011;15734;50.904;6.922;2023-08-12T03:00:26;92.85;;;45.08;;
28523;SDS011;15734;50.904;6.922;2023-08-12T03:02:52;80.68;;;42.72;;
28523;SDS011;15734;50.904;6.922;2023-08-12T03:05:18;97.15;;;48.20;;
28523;SDS011;15734;50.904;6.922;2023-08-12T03:07:43;82.22;;;42.25;;
28523;SDS011;15734;50.904;6.922;2023-08-12T03:10:09;105.45;;;46.35;;
28523;SDS011;15734;50.904;6.922;2023-08-12T03:12:35;85.95;;;42.72;;
28523;SDS011;15734;50.904;6.922;2023-08-12T03:15:01;92.20;;;44.92;;
28523;SDS011;15734;50.904;6.922;2023-08-12T03:17:28;86.55;;;43.70;;
28523;SDS011;15734;50.904;6.922;2023-08-12T03:19:53;80.30;;;42.92;;
28523;SDS011;15734;50.904;6.922;2023-08-12T03:22:22;87.55;;;44.05;;
28523;SDS011;15734;50.904;6.922;2023-08-12T03:24:47;70.32;;;37.13;;
28523;SDS011;15734;50.904;6.922;2023-08-12T03:27:13;72.10;;;38.60;;
28523;SDS011;15734;50.904;6.922;2023-08-12T03:29:39;70.30;;;37.45;;
28523;SDS011;15734;50.904;6.922;2023-08-12T03:32:04;62.17;;;32.78;;
28523;SDS011;15734;50.904;6.922;2023-08-12T03:34:30;80.15;;;38.05;;
28523;SDS011;15734;50.904;6.922;2023-08-12T03:36:55;69.88;;;36.70;;
28523;SDS011;15734;50.904;6.922;2023-08-12T03:39:21;73.93;;;37.83;;
28523;SDS011;15734;50.904;6.922;2023-08-12T03:41:46;64.97;;;35.88;;
28523;SDS011;15734;50.904;6.922;2023-08-12T03:44:12;62.58;;;33.55;;
28523;SDS011;15734;50.904;6.922;2023-08-12T03:46:37;64.75;;;34.53;;
28523;SDS011;15734;50.904;6.922;2023-08-12T03:49:03;66.45;;;35.92;;
28523;SDS011;15734;50.904;6.922;2023-08-12T03:51:28;50.38;;;30.23;;
28523;SDS011;15734;50.904;6.922;2023-08-12T03:53:54;55.53;;;31.48;;
28523;SDS011;15734;50.904;6.922;2023-08-12T03:56:19;58.05;;;30.98;;
28523;SDS011;15734;50.904;6.922;2023-08-12T03:58:45;57.67;;;27.60;;
28523;SDS011;15734;50.904;6.922;2023-08-12T04:01:10;49.15;;;28.48;;
28523;SDS011;15734;50.904;6.922;2023-08-12T04:03:36;38.92;;;25.05;;
28523;SDS011;15734;50.904;6.922;2023-08-12T04:06:02;49.85;;;25.85;;
28523;SDS011;15734;50.904;6.922;2023-08-12T04:08:28;41.60;;;25.20;;
28523;SDS011;15734;50.904;6.922;2023-08-12T04:10:53;46.08;;;25.13;;
28523;SDS011;15734;50.904;6.922;2023-08-12T04:13:19;40.40;;;24.00;;
28523;SDS011;15734;50.904;6.922;2023-08-12T04:15:48;39.10;;;23.92;;
28523;SDS011;15734;50.904;6.922;2023-08-12T04:18:15;41.72;;;23.95;;
28523;SDS011;15734;50.904;6.922;2023-08-12T04:20:40;45.97;;;25.80;;
28523;SDS011;15734;50.904;6.922;2023-08-12T04:23:06;44.20;;;25.77;;
28523;SDS011;15734;50.904;6.922;2023-08-12T04:25:32;42.67;;;25.65;;
28523;SDS011;15734;50.904;6.922;2023-08-12T04:27:57;38.67;;;24.63;;
28523;SDS011;15734;50.904;6.922;2023-08-12T04:30:23;46.67;;;24.13;;
28523;SDS011;15734;50.904;6.922;2023-08-12T04:32:49;43.05;;;24.55;;
28523;SDS011;15734;50.904;6.922;2023-08-12T04:35:14;34.17;;;21.45;;
28523;SDS011;15734;50.904;6.922;2023-08-12T04:37:40;39.92;;;24.67;;
28523;SDS011;15734;50.904;6.922;2023-08-12T04:40:06;41.78;;;23.27;;
28523;SDS011;15734;50.904;6.922;2023-08-12T04:42:36;43.40;;;23.58;;
28523;SDS011;15734;50.904;6.922;2023-08-12T04:45:01;40.60;;;22.23;;
28523;SDS011;15734;50.904;6.922;2023-08-12T04:47:28;32.63;;;20.33;;
28523;SDS011;15734;50.904;6.922;2023-08-12T04:49:54;39.58;;;22.25;;
28523;SDS011;15734;50.904;6.922;2023-08-12T04:52:20;33.03;;;19.60;;
28523;SDS011;15734;50.904;6.922;2023-08-12T04:54:45;36.65;;;23.38;;
28523;SDS011;15734;50.904;6.922;2023-08-12T04:57:11;35.60;;;21.92;;
28523;SDS011;15734;50.904;6.922;2023-08-12T04:59:37;30.77;;;21.83;;
28523;SDS011;15734;50.904;6.922;2023-08-12T05:02:02;33.88;;;22.90;;
28523;SDS011;15734;50.904;6.922;2023-08-12T05:04:28;36.22;;;23.48;;
28523;SDS011;15734;50.904;6.922;2023-08-12T05:06:53;34.70;;;21.45;;
28523;SDS011;15734;50.904;6.922;2023-08-12T05:09:19;32.72;;;21.85;;
28523;SDS011;15734;50.904;6.922;2023-08-12T05:11:44;36.88;;;22.05;;
28523;SDS011;15734;50.904;6.922;2023-08-12T05:14:10;34.55;;;21.85;;
28523;SDS011;15734;50.904;6.922;2023-08-12T05:16:36;34.03;;;21.08;;
28523;SDS011;15734;50.904;6.922;2023-08-12T05:19:01;32.63;;;20.00;;
28523;SDS011;15734;50.904;6.922;2023-08-12T05:21:27;31.58;;;19.42;;
28523;SDS011;15734;50.904;6.922;2023-08-12T05:23:52;33.33;;;19.55;;
28523;SDS011;15734;50.904;6.922;2023-08-12T05:26:19;32.78;;;20.13;;
28523;SDS011;15734;50.904;6.922;2023-08-12T05:28:45;25.75;;;17.60;;
28523;SDS011;15734;50.904;6.922;2023-08-12T05:31:11;32.47;;;18.73;;
28523;SDS011;15734;50.904;6.922;2023-08-12T05:33:37;34.88;;;19.77;;
28523;SDS011;15734;50.904;6.922;2023-08-12T05:36:02;31.65;;;20.92;;
28523;SDS011;15734;50.904;6.922;2023-08-12T05:38:28;27.88;;;18.67;;
28523;SDS011;15734;50.904;6.922;2023-08-12T05:40:54;27.05;;;17.80;;
28523;SDS011;15734;50.904;6.922;2023-08-12T05:43:20;31.83;;;20.88;;
28523;SDS011;15734;50.904;6.922;2023-08-12T05:45:45;32.80;;;21.75;;
28523;SDS011;15734;50.904;6.922;2023-08-12T05:48:11;23.70;;;18.90;;
28523;SDS011;15734;50.904;6.922;2023-08-12T05:50:36;34.20;;;22.02;;
28523;SDS011;15734;50.904;6.922;2023-08-12T05:53:02;30.30;;;20.50;;
28523;SDS011;15734;50.904;6.922;2023-08-12T05:55:27;32.92;;;22.02;;
28523;SDS011;15734;50.904;6.922;2023-08-12T05:57:53;28.70;;;20.65;;
28523;SDS011;15734;50.904;6.922;2023-08-12T06:00:19;39.15;;;24.17;;
28523;SDS011;15734;50.904;6.922;2023-08-12T06:02:44;33.75;;;22.80;;
28523;SDS011;15734;50.904;6.922;2023-08-12T06:05:10;40.00;;;24.38;;
28523;SDS011;15734;50.904;6.922;2023-08-12T06:07:35;44.17;;;26.70;;
28523;SDS011;15734;50.904;6.922;2023-08-12T06:10:01;51.13;;;26.38;;
28523;SDS011;15734;50.904;6.922;2023-08-12T06:12:27;39.20;;;23.83;;
28523;SDS011;15734;50.904;6.922;2023-08-12T06:14:53;43.08;;;26.63;;
28523;SDS011;15734;50.904;6.922;2023-08-12T06:17:18;37.15;;;25.92;;
28523;SDS011;15734;50.904;6.922;2023-08-12T06:19:44;41.45;;;25.67;;
28523;SDS011;15734;50.904;6.922;2023-08-12T06:22:09;37.42;;;23.42;;
28523;SDS011;15734;50.904;6.922;2023-08-12T06:24:35;37.72;;;24.15;;
28523;SDS011;15734;50.904;6.922;2023-08-12T06:27:00;32.25;;;18.42;;
28523;SDS011;15734;50.904;6.922;2023-08-12T06:29:26;24.20;;;15.95;;
28523;SDS011;15734;50.904;6.922;2023-08-12T06:31:52;27.85;;;15.02;;
28523;SDS011;15734;50.904;6.922;2023-08-12T06:34:18;26.10;;;13.98;;
28523;SDS011;15734;50.904;6.922;2023-08-12T06:36:44;18.85;;;10.98;;
28523;SDS011;15734;50.904;6.922;2023-08-12T06:39:09;17.00;;;9.93;;
28523;SDS011;15734;50.904;6.922;2023-08-12T06:41:35;20.90;;;11.77;;
28523;SDS011;15734;50.904;6.922;2023-08-12T06:44:00;14.20;;;9.95;;
28523;SDS011;15734;50.904;6.922;2023-08-12T06:46:26;18.10;;;10.02;;
28523;SDS011;15734;50.904;6.922;2023-08-12T06:48:51;19.08;;;11.23;;
28523;SDS011;15734;50.904;6.922;2023-08-12T06:51:17;16.58;;;9.80;;
28523;SDS011;15734;50.904;6.922;2023-08-12T06:53:42;14.80;;;8.68;;
28523;SDS011;15734;50.904;6.922;2023-08-12T06:56:08;15.48;;;8.13;;
28523;SDS011;15734;50.904;6.922;2023-08-12T06:58:34;15.43;;;8.50;;
28523;SDS011;15734;50.904;6.922;2023-08-12T07:00:59;14.75;;;8.00;;
28523;SDS011;15734;50.904;6.922;2023-08-12T07:03:25;11.63;;;7.47;;
28523;SDS011;15734;50.904;6.922;2023-08-12T07:05:52;11.52;;;7.10;;
28523;SDS011;15734;50.904;6.922;2023-08-12T07:08:18;12.13;;;6.38;;
28523;SDS011;15734;50.904;6.922;2023-08-12T07:10:44;10.80;;;6.78;;
28523;SDS011;15734;50.904;6.922;2023-08-12T07:13:10;29.23;;;14.60;;
28523;SDS011;15734;50.904;6.922;2023-08-12T07:15:36;10.25;;;6.40;;
28523;SDS011;15734;50.904;6.922;2023-08-12T07:18:01;8.13;;;6.00;;
28523;SDS011;15734;50.904;6.922;2023-08-12T07:20:27;7.63;;;5.45;;
28523;SDS011;15734;50.904;6.922;2023-08-12T07:22:53;13.38;;;5.75;;
28523;SDS011;15734;50.904;6.922;2023-08-12T07:25:18;7.60;;;5.78;;
28523;SDS011;15734;50.904;6.922;2023-08-12T07:27:44;13.07;;;5.82;;
28523;SDS011;15734;50.904;6.922;2023-08-12T07:30:09;11.98;;;5.68;;
28523;SDS011;15734;50.904;6.922;2023-08-12T07:32:36;11.25;;;5.85;;
28523;SDS011;15734;50.904;6.922;2023-08-12T07:35:02;9.25;;;5.07;;
28523;SDS011;15734;50.904;6.922;2023-08-12T07:37:30;8.77;;;5.38;;
28523;SDS011;15734;50.904;6.922;2023-08-12T07:39:55;7.70;;;4.57;;
28523;SDS011;15734;50.904;6.922;2023-08-12T07:42:21;12.25;;;5.78;;
28523;SDS011;15734;50.904;6.922;2023-08-12T07:44:46;8.15;;;4.63;;
28523;SDS011;15734;50.904;6.922;2023-08-12T07:47:12;15.93;;;4.93;;
28523;SDS011;15734;50.904;6.922;2023-08-12T07:49:38;7.75;;;5.25;;
28523;SDS011;15734;50.904;6.922;2023-08-12T07:52:03;8.80;;;5.53;;
28523;SDS011;15734;50.904;6.922;2023-08-12T07:54:29;11.50;;;5.28;;
28523;SDS011;15734;50.904;6.922;2023-08-12T07:56:55;10.05;;;4.72;;
28523;SDS011;15734;50.904;6.922;2023-08-12T07:59:20;9.02;;;4.30;;
28523;SDS011;15734;50.904;6.922;2023-08-12T08:01:46;6.10;;;4.28;;
28523;SDS011;15734;50.904;6.922;2023-08-12T08:04:12;10.55;;;4.97;;
28523;SDS011;15734;50.904;6.922;2023-08-12T08:06:37;7.75;;;4.75;;
28523;SDS011;15734;50.904;6.922;2023-08-12T08:09:03;6.40;;;4.35;;
28523;SDS011;15734;50.904;6.922;2023-08-12T08:11:29;4.78;;;4.07;;
28523;SDS011;15734;50.904;6.922;2023-08-12T08:13:55;7.97;;;4.50;;
28523;SDS011;15734;50.904;6.922;2023-08-12T08:16:22;6.15;;;3.90;;
28523;SDS011;15734;50.904;6.922;2023-08-12T08:18:47;7.38;;;4.32;;
28523;SDS011;15734;50.904;6.922;2023-08-12T08:21:13;5.20;;;3.78;;
28523;SDS011;15734;50.904;6.922;2023-08-12T08:23:40;7.43;;;3.85;;
28523;SDS011;15734;50.904;6.922;2023-08-12T08:26:06;10.95;;;4.22;;
28523;SDS011;15734;50.904;6.922;2023-08-12T08:28:32;6.28;;;3.60;;
28523;SDS011;15734;50.904;6.922;2023-08-12T08:30:58;5.65;;;3.60;;
28523;SDS011;15734;50.904;6.922;2023-08-12T08:33:24;9.10;;;4.03;;
28523;SDS011;15734;50.904;6.922;2023-08-12T08:35:50;5.22;;;3.47;;
28523;SDS011;15734;50.904;6.922;2023-08-12T08:38:16;6.97;;;3.28;;
28523;SDS011;15734;50.904;6.922;2023-08-12T08:40:41;5.25;;;3.35;;
28523;SDS011;15734;50.904;6.922;2023-08-12T08:43:07;9.18;;;3.50;;
28523;SDS011;15734;50.904;6.922;2023-08-12T08:45:33;7.22;;;2.83;;
28523;SDS011;15734;50.904;6.922;2023-08-12T08:47:59;8.20;;;3.75;;
28523;SDS011;15734;50.904;6.922;2023-08-12T08:50:29;5.10;;;3.40;;
28523;SDS011;15734;50.904;6.922;2023-08-12T08:52:56;4.75;;;3.08;;
28523;SDS011;15734;50.904;6.922;2023-08-12T08:55:22;14.75;;;3.90;;
28523;SDS011;15734;50.904;6.922;2023-08-12T08:57:48;8.38;;;3.75;;
28523;SDS011;15734;50.904;6.922;2023-08-12T09:00:15;5.80;;;3.53;;
28523;SDS011;15734;50.904;6.922;2023-08-12T09:02:43;4.47;;;3.58;;
28523;SDS011;15734;50.904;6.922;2023-08-12T09:05:14;7.32;;;3.55;;
28523;SDS011;15734;50.904;6.922;2023-08-12T09:07:40;9.75;;;3.58;;
28523;SDS011;15734;50.904;6.922;2023-08-12T09:10:07;7.20;;;3.58;;
28523;SDS011;15734;50.904;6.922;2023-08-12T09:12:33;3.88;;;3.33;;
28523;SDS011;15734;50.904;6.922;2023-08-12T09:14:59;6.75;;;3.88;;
28523;SDS011;15734;50.904;6.922;2023-08-12T09:17:24;6.70;;;3.65;;
28523;SDS011;15734;50.904;6.922;2023-08-12T09:19:50;6.13;;;3.08;;
28523;SDS011;15734;50.904;6.922;2023-08-12T09:22:16;3.58;;;2.58;;
28523;SDS011;15734;50.904;6.922;2023-08-12T09:24:43;10.88;;;3.13;;
28523;SDS011;15734;50.904;6.922;2023-08-12T09:27:08;5.30;;;2.80;;
28523;SDS011;15734;50.904;6.922;2023-08-12T09:29:35;11.10;;;3.17;;
28523;SDS011;15734;50.904;6.922;2023-08-12T09:32:17;5.28;;;2.90;;
28523;SDS011;15734;50.904;6.922;2023-08-12T09:34:47;8.32;;;3.03;;
28523;SDS011;15734;50.904;6.922;2023-08-12T09:37:18;6.57;;;2.83;;
28523;SDS011;15734;50.904;6.922;2023-08-12T09:39:44;8.02;;;3.03;;
28523;SDS011;15734;50.904;6.922;2023-08-12T09:42:10;8.10;;;2.72;;
28523;SDS011;15734;50.904;6.922;2023-08-12T09:44:36;8.02;;;3.33;;
28523;SDS011;15734;50.904;6.922;2023-08-12T09:47:02;8.50;;;2.97;;
28523;SDS011;15734;50.904;6.922;2023-08-12T09:49:28;4.40;;;2.60;;
28523;SDS011;15734;50.904;6.922;2023-08-12T09:51:54;5.65;;;2.95;;
28523;SDS011;15734;50.904;6.922;2023-08-12T09:54:20;8.90;;;3.00;;
28523;SDS011;15734;50.904;6.922;2023-08-12T09:56:47;7.22;;;2.97;;
28523;SDS011;15734;50.904;6.922;2023-08-12T09:59:15;6.05;;;3.13;;
28523;SDS011;15734;50.904;6.922;2023-08-12T10:01:48;5.78;;;3.00;;
28523;SDS011;15734;50.904;6.922;2023-08-12T10:04:17;9.60;;;3.15;;
28523;SDS011;15734;50.904;6.922;2023-08-12T10:06:43;5.50;;;2.70;;
28523;SDS011;15734;50.904;6.922;2023-08-12T10:09:10;4.80;;;2.85;;
28523;SDS011;15734;50.904;6.922;2023-08-12T10:11:37;10.88;;;2.97;;
28523;SDS011;15734;50.904;6.922;2023-08-12T10:14:05;4.95;;;2.60;;
28523;SDS011;15734;50.904;6.922;2023-08-12T10:16:33;7.85;;;2.15;;
28523;SDS011;15734;50.904;6.922;2023-08-12T10:19:00;2.97;;;1.55;;
28523;SDS011;15734;50.904;6.922;2023-08-12T10:21:27;4.00;;;1.50;;
28523;SDS011;15734;50.904;6.922;2023-08-12T10:23:53;1.85;;;1.20;;
28523;SDS011;15734;50.904;6.922;2023-08-12T10:26:22;2.65;;;1.40;;
28523;SDS011;15734;50.904;6.922;2023-08-12T10:28:49;1.75;;;1.38;;
28523;SDS011;15734;50.904;6.922;2023-08-12T10:31:15;2.78;;;1.50;;
28523;SDS011;15734;50.904;6.922;2023-08-12T10:33:41;3.30;;;1.50;;
28523;SDS011;15734;50.904;6.922;2023-08-12T10:36:07;5.25;;;1.20;;
28523;SDS011;15734;50.904;6.922;2023-08-12T10:38:34;3.55;;;1.52;;
28523;SDS011;15734;50.904;6.922;2023-08-12T10:41:16;1.55;;;1.05;;
28523;SDS011;15734;50.904;6.922;2023-08-12T10:43:53;2.25;;;1.60;;
28523;SDS011;15734;50.904;6.922;2023-08-12T10:46:34;1.70;;;1.50;;
28523;SDS011;15734;50.904;6.922;2023-08-12T10:49:04;2.05;;;1.42;;
28523;SDS011;15734;50.904;6.922;2023-08-12T10:51:47;3.63;;;1.55;;
28523;SDS011;15734;50.904;6.922;2023-08-12T11:05:01;3.22;;;1.23;;
28523;SDS011;15734;50.904;6.922;2023-08-12T11:07:43;3.13;;;1.38;;
28523;SDS011;15734;50.904;6.922;2023-08-12T11:10:12;3.50;;;1.60;;
28523;SDS011;15734;50.904;6.922;2023-08-12T11:15:40;2.28;;;1.40;;
28523;SDS011;15734;50.904;6.922;2023-08-12T11:18:08;2.53;;;1.77;;
28523;SDS011;15734;50.904;6.922;2023-08-12T11:20:36;3.47;;;1.60;;
28523;SDS011;15734;50.904;6.922;2023-08-12T11:23:02;4.25;;;1.42;;
28523;SDS011;15734;50.904;6.922;2023-08-12T11:25:29;2.63;;;1.67;;
28523;SDS011;15734;50.904;6.922;2023-08-12T11:27:57;6.07;;;1.40;;
28523;SDS011;15734;50.904;6.922;2023-08-12T11:30:24;7.10;;;1.30;;
28523;SDS011;15734;50.904;6.922;2023-08-12T11:32:51;3.47;;;1.48;;
28523;SDS011;15734;50.904;6.922;2023-08-12T11:35:18;1.20;;;1.10;;
28523;SDS011;15734;50.904;6.922;2023-08-12T11:37:46;1.58;;;1.17;;
28523;SDS011;15734;50.904;6.922;2023-08-12T11:40:15;2.65;;;1.70;;
28523;SDS011;15734;50.904;6.922;2023-08-12T11:42:43;1.77;;;1.42;;
28523;SDS011;15734;50.904;6.922;2023-08-12T11:45:10;2.25;;;1.30;;
28523;SDS011;15734;50.904;6.922;2023-08-12T11:47:36;1.67;;;1.40;;
28523;SDS011;15734;50.904;6.922;2023-08-12T11:50:06;2.05;;;1.10;;
28523;SDS011;15734;50.904;6.922;2023-08-12T11:52:33;1.67;;;1.50;;
28523;SDS011;15734;50.904;6.922;2023-08-12T11:55:00;2.08;;;1.58;;
28523;SDS011;15734;50.904;6.922;2023-08-12T11:57:26;1.48;;;1.35;;
28523;SDS011;15734;50.904;6.922;2023-08-12T11:59:59;1.20;;;1.05;;
28523;SDS011;15734;50.904;6.922;2023-08-12T12:02:35;2.28;;;1.38;;
28523;SDS011;15734;50.904;6.922;2023-08-12T12:05:07;1.23;;;0.98;;
28523;SDS011;15734;50.904;6.922;2023-08-12T12:07:33;1.30;;;0.95;;
28523;SDS011;15734;50.904;6.922;2023-08-12T12:09:59;2.38;;;1.10;;
28523;SDS011;15734;50.904;6.922;2023-08-12T12:12:25;1.90;;;0.65;;
28523;SDS011;15734;50.904;6.922;2023-08-12T12:14:51;1.48;;;0.80;;
28523;SDS011;15734;50.904;6.922;2023-08-12T12:17:18;1.58;;;0.80;;
28523;SDS011;15734;50.904;6.922;2023-08-12T12:19:46;0.90;;;0.80;;
28523;SDS011;15734;50.904;6.922;2023-08-12T12:22:12;1.40;;;0.90;;
28523;SDS011;15734;50.904;6.922;2023-08-12T12:24:44;0.80;;;0.80;;
28523;SDS011;15734;50.904;6.922;2023-08-12T12:27:13;0.90;;;0.80;;
28523;SDS011;15734;50.904;6.922;2023-08-12T12:29:39;2.22;;;1.02;;
28523;SDS011;15734;50.904;6.922;2023-08-12T12:32:05;0.75;;;0.70;;
28523;SDS011;15734;50.904;6.922;2023-08-12T12:34:31;1.30;;;0.80;;
28523;SDS011;15734;50.904;6.922;2023-08-12T12:36:57;1.58;;;1.15;;
28523;SDS011;15734;50.904;6.922;2023-08-12T12:39:22;3.83;;;1.10;;
28523;SDS011;15734;50.904;6.922;2023-08-12T12:41:48;1.42;;;1.00;;
28523;SDS011;15734;50.904;6.922;2023-08-12T12:44:15;1.63;;;1.00;;
28523;SDS011;15734;50.904;6.922;2023-08-12T12:46:41;1.00;;;0.90;;
28523;SDS011;15734;50.904;6.922;2023-08-12T12:49:07;1.67;;;0.80;;
28523;SDS011;15734;50.904;6.922;2023-08-12T12:51:32;1.08;;;0.90;;
28523;SDS011;15734;50.904;6.922;2023-08-12T12:53:58;1.75;;;0.88;;
28523;SDS011;15734;50.904;6.922;2023-08-12T12:56:24;1.13;;;0.90;;
28523;SDS011;15734;50.904;6.922;2023-08-12T12:58:49;0.90;;;0.65;;
28523;SDS011;15734;50.904;6.922;2023-08-12T13:01:15;1.55;;;0.93;;
28523;SDS011;15734;50.904;6.922;2023-08-12T13:03:41;1.55;;;0.90;;
28523;SDS011;15734;50.904;6.922;2023-08-12T13:06:07;4.32;;;1.00;;
28523;SDS011;15734;50.904;6.922;2023-08-12T13:08:32;0.82;;;0.80;;
28523;SDS011;15734;50.904;6.922;2023-08-12T13:10:58;1.20;;;0.90;;
28523;SDS011;15734;50.904;6.922;2023-08-12T13:13:24;1.30;;;0.80;;
28523;SDS011;15734;50.904;6.922;2023-08-12T13:15:51;7.63;;;1.20;;
28523;SDS011;15734;50.904;6.922;2023-08-12T13:18:17;1.30;;;0.80;;
28523;SDS011;15734;50.904;6.922;2023-08-12T13:20:43;1.45;;;0.60;;
28523;SDS011;15734;50.904;6.922;2023-08-12T13:23:08;1.38;;;0.40;;
28523;SDS011;15734;50.904;6.922;2023-08-12T13:25:34;1.02;;;0.40;;
28523;SDS011;15734;50.904;6.922;2023-08-12T13:28:00;2.67;;;0.50;;
28523;SDS011;15734;50.904;6.922;2023-08-12T13:30:28;1.05;;;0.60;;
28523;SDS011;15734;50.904;6.922;2023-08-12T13:32:54;0.77;;;0.50;;
28523;SDS011;15734;50.904;6.922;2023-08-12T13:35:20;0.85;;;0.45;;
28523;SDS011;15734;50.904;6.922;2023-08-12T13:37:46;1.10;;;0.57;;
28523;SDS011;15734;50.904;6.922;2023-08-12T13:40:12;3.95;;;0.40;;
28523;SDS011;15734;50.904;6.922;2023-08-12T13:42:40;1.27;;;0.60;;
28523;SDS011;15734;50.904;6.922;2023-08-12T13:45:06;1.00;;;0.50;;
28523;SDS011;15734;50.904;6.922;2023-08-12T13:47:34;0.85;;;0.45;;
28523;SDS011;15734;50.904;6.922;2023-08-12T13:49:59;0.50;;;0.50;;
28523;SDS011;15734;50.904;6.922;2023-08-12T13:52:25;0.45;;;0.40;;
28523;SDS011;15734;50.904;6.922;2023-08-12T13:54:50;0.60;;;0.40;;
28523;SDS011;15734;50.904;6.922;2023-08-12T13:57:16;8.30;;;0.75;;
28523;SDS011;15734;50.904;6.922;2023-08-12T13:59:41;0.40;;;0.40;;
28523;SDS011;15734;50.904;6.922;2023-08-12T14:02:09;0.82;;;0.30;;
28523;SDS011;15734;50.904;6.922;2023-08-12T14:04:37;0.90;;;0.40;;
28523;SDS011;15734;50.904;6.922;2023-08-12T14:07:05;1.45;;;0.30;;
28523;SDS011;15734;50.904;6.922;2023-08-12T14:09:31;1.58;;;0.45;;
28523;SDS011;15734;50.904;6.922;2023-08-12T14:11:57;3.17;;;0.85;;
28523;SDS011;15734;50.904;6.922;2023-08-12T14:14:24;0.88;;;0.43;;
28523;SDS011;15734;50.904;6.922;2023-08-12T14:16:52;0.60;;;0.45;;
28523;SDS011;15734;50.904;6.922;2023-08-12T14:19:18;0.80;;;0.52;;
28523;SDS011;15734;50.904;6.922;2023-08-12T14:21:44;0.73;;;0.52;;
28523;SDS011;15734;50.904;6.922;2023-08-12T14:24:09;6.80;;;0.60;;
28523;SDS011;15734;50.904;6.922;2023-08-12T14:26:35;3.03;;;0.50;;
28523;SDS011;15734;50.904;6.922;2023-08-12T14:29:00;0.77;;;0.40;;
28523;SDS011;15734;50.904;6.922;2023-08-12T14:31:26;0.85;;;0.40;;
28523;SDS011;15734;50.904;6.922;2023-08-12T14:33:52;3.70;;;0.45;;
28523;SDS011;15734;50.904;6.922;2023-08-12T14:36:17;0.95;;;0.43;;
28523;SDS011;15734;50.904;6.922;2023-08-12T14:38:43;0.50;;;0.40;;
28523;SDS011;15734;50.904;6.922;2023-08-12T14:41:08;0.45;;;0.40;;
28523;SDS011;15734;50.904;6.922;2023-08-12T14:43:34;0.35;;;0.32;;
28523;SDS011;15734;50.904;6.922;2023-08-12T14:45:59;2.55;;;0.40;;